• Join FlightAware (Why Join?)
  • Login
  • US Flag 
07:27AM EDT


 

Airport Tracker/Info


-or-


 

Live Flight TrackerFlight Track Log ✈ JIA2382 ✈ 14-Jun-2013 ✈ KCLT - KPGV

Flight Track Log - Related Links

Times and Time Zones

All times are in EDT time to prevent confusion due to time zone crossing. See the JIA2382 flight status page for this flight to view local times or setup timezone preferences in your user account.

Time Position Orientation Groundspeed Altitude Reporting Facility
EDT Latitude Longitude Course Direction KTS MPH feet Rate Location/Type
09:36AM 35.2369 -80.9392 72° East 156 180 1,800  Level Atlanta Center
09:37AM 35.2925 -80.9114 22° Northeast 230 265 3,800 1,980 Climbing Atlanta Center
09:38AM 35.1000 -80.7241 90° East  Level FlightAware Approximate
09:38AM 35.2969 -80.8400 86° East 271 312 5,900  Level Atlanta Center
09:39AM 35.1413 -80.6058 29° Northeast  Level FlightAware Approximate
09:39AM 35.2922 -80.7461 93° East 283 326 8,000  Level Atlanta Center
09:40AM 35.2469 -80.5332 30° Northeast  Level FlightAware Approximate
09:40AM 35.2956 -80.6392 88° East 310 357 10,200  Level Atlanta Center
09:41AM 35.3365 -80.4548 72° East  Level FlightAware Approximate
09:41AM 35.3178 -80.5364 75° East 339 390 12,000  Level Atlanta Center
09:42AM 35.3481 -80.4256 71° East 334 384 13,400 1,440 Climbing Atlanta Center
09:44AM 35.4117 -80.2125 70° East 361 415 16,300 1,500 Climbing Washington Center
09:45AM 35.4456 -80.0894 71° East 366 421 17,800 1,380 Climbing Washington Center
09:46AM 35.4769 -79.9714 72° East 366 421 19,100 1,260 Climbing Washington Center
09:47AM 35.5089 -79.8431 73° East 372 428 20,400 1,140 Climbing Washington Center
09:48AM 35.5406 -79.7144 73° East 377 434 21,400 1,080 Climbing Washington Center
09:49AM 35.5808 -79.5686 71° East 398 458 22,600 780 Climbing Washington Center
09:50AM 35.6100 -79.4472 74° East 403 464 23,000 180 Climbing Washington Center
09:51AM 35.6164 -79.3069 87° East 403 464 23,000  Level Washington Center
09:52AM 35.6189 -79.1589 89° East 414 476 23,000  Level Washington Center
09:53AM 35.6211 -79.0083 89° East 427 491 23,000  Level Washington Center
09:54AM 35.6233 -78.8578 89° East 432 497 23,000  Level Washington Center
09:55AM 35.6272 -78.7069 88° East 439 505 23,000 -1,020 Level Washington Center
09:56AM 35.6311 -78.5539 88° East 439 505 21,000 -2,280 Descending Washington Center
09:57AM 35.6308 -78.3956 90° East 439 505 18,500 -2,580 Descending Washington Center
09:58AM 35.6319 -78.2600 89° East 416 479 16,000 -2,520 Descending Washington Center
09:59AM 35.6325 -78.1322 90° East 394 453 13,600 -2,340 Descending Washington Center
10:00AM 35.6331 -78.0069 90° East 374 430 11,300 -1,920 Descending Washington Center
10:01AM 35.6353 -77.8922 89° East 352 405 9,800 -1,680 Descending Washington Center
10:02AM 35.6353 -77.7872 90° East 324 373 8,000 -1,920 Descending Washington Center
10:03AM 35.6350 -77.6850 90° East 308 354 6,100 -2,100 Descending Washington Center
10:04AM 35.6364 -77.5958 89° East 280 322 3,900 -1,680 Descending Washington Center
10:05AM 35.6378 -77.5114 89° East 259 298 2,800 -1,140 Descending Washington Center